createdAt,value
2022-10-21T00:01:50.031Z,55.23
2022-10-21T00:04:16.635Z,54.82
2022-10-21T00:06:43.202Z,54.67
2022-10-21T00:09:09.907Z,55.46
2022-10-21T00:11:36.517Z,56.14
2022-10-21T00:14:03.683Z,56.57
2022-10-21T00:16:30.279Z,56.22
2022-10-21T00:18:56.894Z,55.47
2022-10-21T00:21:23.662Z,55.47
2022-10-21T00:23:50.315Z,55.39
2022-10-21T00:26:17.972Z,54.94
2022-10-21T00:28:44.891Z,54.84
2022-10-21T00:31:13.335Z,55.29
2022-10-21T00:33:39.992Z,54.75
2022-10-21T00:36:07.904Z,54.48
2022-10-21T00:38:35.674Z,55.30
2022-10-21T00:41:02.730Z,54.94
2022-10-21T00:43:30.071Z,56.29
2022-10-21T00:46:02.276Z,56.53
2022-10-21T00:48:33.870Z,56.19
2022-10-21T00:51:05.992Z,56.05
2022-10-21T00:53:35.324Z,56.67
2022-10-21T00:56:15.599Z,56.84
2022-10-21T00:58:44.614Z,58.08
2022-10-21T01:01:11.343Z,60.99
2022-10-21T01:03:37.947Z,62.76
2022-10-21T01:06:09.441Z,62.83
2022-10-21T01:08:37.245Z,62.12
2022-10-21T01:11:05.270Z,60.37
2022-10-21T01:13:44.432Z,60.05
2022-10-21T01:16:22.757Z,60.94
2022-10-21T01:19:09.481Z,60.33
2022-10-21T01:21:49.803Z,59.48
2022-10-21T01:24:41.272Z,59.17
2022-10-21T01:27:23.958Z,59.70
2022-10-21T01:30:02.694Z,58.86
2022-10-21T01:32:55.540Z,59.09
2022-10-21T01:35:28.790Z,59.33
2022-10-21T01:38:08.318Z,59.21
2022-10-21T01:40:43.545Z,57.83
2022-10-21T01:43:19.699Z,57.64
2022-10-21T01:46:00.937Z,57.36
2022-10-21T01:48:39.939Z,57.09
2022-10-21T01:51:09.498Z,56.63
2022-10-21T01:53:45.008Z,57.01
2022-10-21T01:56:14.080Z,57.38
2022-10-21T01:58:43.308Z,56.51
2022-10-21T02:01:12.765Z,56.47
2022-10-21T02:03:42.644Z,56.22
2022-10-21T02:06:09.437Z,56.63
2022-10-21T02:08:36.178Z,56.08
2022-10-21T02:11:07.123Z,56.27
2022-10-21T02:13:47.802Z,56.45
2022-10-21T02:16:18.822Z,56.28
2022-10-21T02:18:45.366Z,56.80
2022-10-21T02:21:20.503Z,57.04
2022-10-21T02:24:04.826Z,56.97
2022-10-21T02:26:31.552Z,56.96
2022-10-21T02:28:59.608Z,57.16
2022-10-21T02:31:39.706Z,57.91
2022-10-21T02:34:30.451Z,57.78
2022-10-21T02:37:28.268Z,57.30
2022-10-21T02:40:20.745Z,57.87
2022-10-21T02:42:54.046Z,57.08
2022-10-21T02:45:22.322Z,57.45
2022-10-21T02:47:50.387Z,57.46
2022-10-21T02:50:17.261Z,57.92
2022-10-21T02:52:43.817Z,57.83
2022-10-21T02:55:10.421Z,58.26
2022-10-21T02:57:37.232Z,58.58
2022-10-21T03:00:05.445Z,58.67
2022-10-21T03:02:32.058Z,59.08
2022-10-21T03:04:58.694Z,60.73
2022-10-21T03:07:25.337Z,60.16
2022-10-21T03:09:51.949Z,59.80
2022-10-21T03:12:18.486Z,60.16
2022-10-21T03:14:45.046Z,60.48
2022-10-21T03:17:11.601Z,59.79
2022-10-21T03:19:38.178Z,60.03
2022-10-21T03:22:04.737Z,62.09
2022-10-21T03:24:31.411Z,63.97
2022-10-21T03:26:57.958Z,62.53
2022-10-21T03:29:24.691Z,61.04
2022-10-21T03:31:51.238Z,60.08
2022-10-21T03:34:17.845Z,59.02
2022-10-21T03:36:44.493Z,58.65
2022-10-21T03:39:12.265Z,58.22
2022-10-21T03:41:39.054Z,58.18
2022-10-21T03:44:05.812Z,58.12
2022-10-21T03:46:32.415Z,57.90
2022-10-21T03:49:03.014Z,57.63
2022-10-21T03:51:33.369Z,57.68
2022-10-21T03:54:00.030Z,57.49
2022-10-21T03:56:26.717Z,56.84
2022-10-21T03:58:57.798Z,57.21
2022-10-21T04:01:25.827Z,56.37
2022-10-21T04:03:52.626Z,56.86
2022-10-21T04:06:19.226Z,57.30
2022-10-21T04:08:45.989Z,58.07
2022-10-21T04:11:12.738Z,58.45
2022-10-21T04:13:39.355Z,58.39
2022-10-21T04:16:08.136Z,61.80
2022-10-21T04:18:34.783Z,62.66
2022-10-21T04:21:01.440Z,60.95
2022-10-21T04:23:28.019Z,59.61
2022-10-21T04:25:54.570Z,59.92
2022-10-21T04:28:21.195Z,59.11
2022-10-21T04:30:50.067Z,59.35
2022-10-21T04:33:16.648Z,58.55
2022-10-21T04:35:43.267Z,58.63
2022-10-21T04:38:09.888Z,58.63
2022-10-21T04:40:36.668Z,58.86
2022-10-21T04:43:03.670Z,60.74
2022-10-21T04:45:30.267Z,62.41
2022-10-21T04:47:56.849Z,62.49
2022-10-21T04:50:23.557Z,62.33
2022-10-21T04:52:50.162Z,62.12
2022-10-21T04:55:16.783Z,61.74
2022-10-21T04:57:43.386Z,60.94
2022-10-21T05:00:10.795Z,59.94
2022-10-21T05:02:37.625Z,60.22
2022-10-21T05:05:04.722Z,59.70
2022-10-21T05:07:31.329Z,58.83
2022-10-21T05:09:57.913Z,58.64
2022-10-21T05:12:24.543Z,58.08
2022-10-21T05:14:51.148Z,58.49
2022-10-21T05:17:17.736Z,58.51
2022-10-21T05:19:44.295Z,58.17
2022-10-21T05:22:12.655Z,58.56
2022-10-21T05:24:39.311Z,58.16
2022-10-21T05:27:05.887Z,57.88
2022-10-21T05:29:32.485Z,58.24
2022-10-21T05:31:59.090Z,57.79
2022-10-21T05:34:25.687Z,57.69
2022-10-21T05:36:52.274Z,59.14
2022-10-21T05:39:18.848Z,59.62
2022-10-21T05:41:47.926Z,60.91
2022-10-21T05:44:15.171Z,62.12
2022-10-21T05:46:41.864Z,62.41
2022-10-21T05:49:08.920Z,62.49
2022-10-21T05:51:35.470Z,62.66
2022-10-21T05:54:03.934Z,60.97
2022-10-21T05:56:30.511Z,60.46
2022-10-21T05:58:57.111Z,60.31
2022-10-21T06:01:23.785Z,59.27
2022-10-21T06:03:50.473Z,58.85
2022-10-21T06:06:17.141Z,59.13
2022-10-21T06:08:43.843Z,58.68
2022-10-21T06:11:12.786Z,58.19
2022-10-21T06:13:40.008Z,58.21
2022-10-21T06:16:07.588Z,58.36
2022-10-21T06:18:34.417Z,58.54
2022-10-21T06:21:00.998Z,58.21
2022-10-21T06:23:28.291Z,58.29
2022-10-21T06:25:59.236Z,58.19
2022-10-21T06:28:27.390Z,58.70
2022-10-21T06:30:54.778Z,58.76
2022-10-21T06:33:26.186Z,58.82
2022-10-21T06:35:53.962Z,58.95
2022-10-21T06:38:20.585Z,58.91
2022-10-21T06:40:48.827Z,58.41
2022-10-21T06:43:16.315Z,58.04
2022-10-21T06:45:42.972Z,58.05
2022-10-21T06:48:09.695Z,57.35
2022-10-21T06:50:39.761Z,56.93
2022-10-21T06:53:06.481Z,56.86
2022-10-21T06:55:33.121Z,57.27
2022-10-21T06:58:00.416Z,58.68
2022-10-21T07:00:27.436Z,58.03
2022-10-21T07:02:54.098Z,58.64
2022-10-21T07:05:20.840Z,58.19
2022-10-21T07:07:47.503Z,58.45
2022-10-21T07:10:14.251Z,58.88
2022-10-21T07:12:41.059Z,58.87
2022-10-21T07:15:08.214Z,58.04
2022-10-21T07:17:34.816Z,57.93
2022-10-21T07:20:01.394Z,58.27
2022-10-21T07:22:31.910Z,58.07
2022-10-21T07:24:58.671Z,57.44
2022-10-21T07:27:25.363Z,60.71
2022-10-21T07:29:52.067Z,61.16
2022-10-21T07:32:18.689Z,62.68
2022-10-21T07:34:45.267Z,61.85
2022-10-21T07:37:11.859Z,62.02
2022-10-21T07:39:38.579Z,60.44
2022-10-21T07:42:05.254Z,58.72
2022-10-21T07:44:31.892Z,58.19
2022-10-21T07:46:58.617Z,59.16
2022-10-21T07:49:25.272Z,58.89
2022-10-21T07:51:51.893Z,59.58
2022-10-21T07:54:20.637Z,58.27
2022-10-21T07:56:52.219Z,58.34
2022-10-21T07:59:20.685Z,58.03
2022-10-21T08:04:21.523Z,58.61
2022-10-21T08:06:49.098Z,58.97
2022-10-21T08:09:17.218Z,58.39
2022-10-21T08:11:44.504Z,61.42
2022-10-21T08:14:11.883Z,59.89
2022-10-21T08:16:39.287Z,59.85
2022-10-21T08:19:07.400Z,59.29
2022-10-21T08:21:34.510Z,60.52
2022-10-21T08:24:05.043Z,58.75
2022-10-21T08:26:31.736Z,58.46
2022-10-21T08:31:30.095Z,57.15
2022-10-21T08:33:56.719Z,58.69
2022-10-21T08:36:25.334Z,56.76
2022-10-21T08:38:52.980Z,58.81
2022-10-21T08:41:31.470Z,58.43
2022-10-21T08:44:05.246Z,58.11
2022-10-21T08:46:49.783Z,56.03
2022-10-21T08:49:24.129Z,55.69
2022-10-21T08:52:03.557Z,55.83
2022-10-21T08:54:45.053Z,56.81
2022-10-21T08:57:12.489Z,57.46
2022-10-21T08:59:42.815Z,56.07
2022-10-21T09:02:12.380Z,58.76
2022-10-21T09:04:41.834Z,58.09
2022-10-21T09:07:20.245Z,57.22
2022-10-21T09:09:54.457Z,56.72
2022-10-21T09:12:37.948Z,56.93
2022-10-21T09:15:27.855Z,57.03
2022-10-21T09:18:09.259Z,55.82
2022-10-21T09:21:05.953Z,55.58
2022-10-21T09:23:42.767Z,55.37
2022-10-21T09:26:09.349Z,55.88
2022-10-21T09:28:37.070Z,57.05
2022-10-21T09:31:15.532Z,56.96
2022-10-21T09:33:46.929Z,56.80
2022-10-21T09:36:22.101Z,55.59
2022-10-21T09:38:53.982Z,55.99
2022-10-21T09:41:24.619Z,54.79
2022-10-21T09:43:51.344Z,56.43
2022-10-21T09:46:18.996Z,55.83
2022-10-21T09:49:25.894Z,55.22
2022-10-21T09:51:40.434Z,56.35
2022-10-21T09:54:14.951Z,54.97
2022-10-21T09:56:50.283Z,55.09
2022-10-21T09:59:19.552Z,53.82
2022-10-21T10:01:47.798Z,55.77
2022-10-21T10:04:30.632Z,53.65
2022-10-21T10:07:00.443Z,54.32
2022-10-21T10:09:34.420Z,54.81
2022-10-21T10:12:21.717Z,54.39
2022-10-21T10:14:48.918Z,54.56
2022-10-21T10:17:24.235Z,52.58
2022-10-21T10:20:06.197Z,53.74
2022-10-21T10:22:33.933Z,53.17
2022-10-21T10:25:17.909Z,51.65
2022-10-21T10:27:47.272Z,53.52
2022-10-21T10:30:15.248Z,53.05
2022-10-21T10:32:42.385Z,51.99
2022-10-21T10:35:35.758Z,51.21
2022-10-21T10:38:04.239Z,50.65
2022-10-21T10:40:42.180Z,51.35
2022-10-21T10:43:28.282Z,50.47
2022-10-21T10:45:58.541Z,50.97
2022-10-21T10:48:46.805Z,50.57
2022-10-21T10:51:24.193Z,50.27
2022-10-21T10:54:01.749Z,50.90
2022-10-21T10:56:31.167Z,50.65
2022-10-21T10:59:12.808Z,50.15
2022-10-21T11:01:49.628Z,49.91
2022-10-21T11:04:30.862Z,49.47
2022-10-21T11:07:05.375Z,49.53
2022-10-21T11:09:34.337Z,50.07
2022-10-21T11:12:05.548Z,50.65
2022-10-21T11:14:32.192Z,50.07
2022-10-21T11:17:11.819Z,50.17
2022-10-21T11:19:57.088Z,49.31
2022-10-21T11:22:42.045Z,49.87
2022-10-21T11:25:27.303Z,48.97
2022-10-21T11:28:02.872Z,50.13
2022-10-21T11:30:57.123Z,48.84
2022-10-21T11:33:42.121Z,49.23
2022-10-21T11:36:40.754Z,48.63
2022-10-21T11:39:32.224Z,48.86
2022-10-21T11:41:58.827Z,49.48
2022-10-21T11:44:29.425Z,48.58
2022-10-21T11:47:08.419Z,49.13
2022-10-21T11:49:56.818Z,48.77
2022-10-21T11:53:11.612Z,50.43
2022-10-21T11:56:10.303Z,49.81
2022-10-21T11:58:45.685Z,48.73
2022-10-21T12:01:23.847Z,48.64
2022-10-21T12:04:25.029Z,48.54
2022-10-21T12:07:00.524Z,48.33
2022-10-21T12:09:38.313Z,48.56
2022-10-21T12:12:15.071Z,47.90
2022-10-21T12:14:54.803Z,48.05
2022-10-21T12:17:23.682Z,46.65
2022-10-21T12:19:57.035Z,47.61
2022-10-21T12:22:26.714Z,48.08
2022-10-21T12:24:58.454Z,46.93
2022-10-21T12:27:27.713Z,46.74
2022-10-21T12:30:38.143Z,47.10
2022-10-21T12:33:48.087Z,47.76
2022-10-21T12:36:17.493Z,48.25
2022-10-21T12:38:57.441Z,47.66
2022-10-21T12:41:23.992Z,47.25
2022-10-21T12:44:03.143Z,46.03
2022-10-21T12:46:48.011Z,46.23
2022-10-21T12:49:19.987Z,47.83
2022-10-21T12:52:25.062Z,48.63
2022-10-21T12:55:02.050Z,46.88
2022-10-21T12:57:42.256Z,46.64
2022-10-21T13:00:22.204Z,45.91
2022-10-21T13:03:14.307Z,45.29
2022-10-21T13:05:40.875Z,46.38
2022-10-21T13:08:19.302Z,46.92
2022-10-21T13:11:06.797Z,46.70
2022-10-21T13:13:38.069Z,46.42
2022-10-21T13:16:19.755Z,45.89
2022-10-21T13:19:05.057Z,45.69
2022-10-21T13:21:45.078Z,45.58
2022-10-21T13:24:11.605Z,46.13
2022-10-21T13:26:57.134Z,45.30
2022-10-21T13:29:29.475Z,46.19
2022-10-21T13:32:38.425Z,46.67
2022-10-21T13:35:14.511Z,46.33
2022-10-21T13:37:51.651Z,45.32
2022-10-21T13:40:21.046Z,45.51
2022-10-21T13:43:13.061Z,45.50
2022-10-21T13:45:47.241Z,45.88
2022-10-21T13:48:17.171Z,46.22
2022-10-21T13:50:46.922Z,45.84
2022-10-21T13:53:29.147Z,45.82
2022-10-21T13:55:59.353Z,47.10
2022-10-21T13:58:27.762Z,46.49
2022-10-21T14:00:57.956Z,45.93
2022-10-21T14:03:26.464Z,45.76
2022-10-21T14:05:59.306Z,46.21
2022-10-21T14:08:28.359Z,46.50
2022-10-21T14:10:58.903Z,47.17
2022-10-21T14:13:29.037Z,46.97
2022-10-21T14:15:56.356Z,47.39
2022-10-21T14:18:31.239Z,47.34
2022-10-21T14:21:00.944Z,47.35
2022-10-21T14:23:29.575Z,47.29
2022-10-21T14:26:04.880Z,47.01
2022-10-21T14:28:33.273Z,47.40
2022-10-21T14:31:01.429Z,47.31
2022-10-21T14:33:29.454Z,47.30
2022-10-21T14:36:16.262Z,47.61
2022-10-21T14:39:06.724Z,47.92
2022-10-21T14:41:40.417Z,47.97
2022-10-21T14:44:28.390Z,48.36
2022-10-21T14:46:55.288Z,48.46
2022-10-21T14:49:22.320Z,48.19
2022-10-21T14:51:50.221Z,48.09
2022-10-21T14:54:45.757Z,48.25
2022-10-21T14:57:26.856Z,48.53
2022-10-21T14:59:54.737Z,48.73
2022-10-21T15:02:25.623Z,48.54
2022-10-21T15:05:03.602Z,48.66
2022-10-21T15:07:38.740Z,48.95
2022-10-21T15:10:05.490Z,48.65
2022-10-21T15:12:53.360Z,48.33
2022-10-21T15:15:39.847Z,48.40
2022-10-21T15:18:13.857Z,48.52
2022-10-21T15:21:16.532Z,48.33
2022-10-21T15:24:05.774Z,48.53
2022-10-21T15:26:48.754Z,48.80
2022-10-21T15:29:25.189Z,48.77
2022-10-21T15:31:54.606Z,49.05
2022-10-21T15:34:21.393Z,49.28
2022-10-21T15:36:48.105Z,49.20
2022-10-21T15:39:14.841Z,49.07
2022-10-21T15:41:42.004Z,49.21
2022-10-21T15:44:20.614Z,49.40
2022-10-21T15:46:50.131Z,49.30
2022-10-21T15:49:22.768Z,49.48
2022-10-21T15:51:50.112Z,49.60
2022-10-21T15:54:18.257Z,50.07
2022-10-21T15:56:47.638Z,49.86
2022-10-21T15:59:23.172Z,50.10
2022-10-21T16:01:50.230Z,50.21
2022-10-21T16:04:17.861Z,49.90
2022-10-21T16:06:48.854Z,50.05
2022-10-21T16:09:21.030Z,50.13
2022-10-21T16:11:58.985Z,50.34
2022-10-21T16:14:29.548Z,50.44
2022-10-21T16:16:58.353Z,50.38
2022-10-21T16:19:25.268Z,50.67
2022-10-21T16:21:51.954Z,50.75
2022-10-21T16:24:18.887Z,50.62
2022-10-21T16:26:47.895Z,50.53
2022-10-21T16:29:25.554Z,50.29
2022-10-21T16:31:52.741Z,50.38
2022-10-21T16:34:19.900Z,50.37
2022-10-21T16:36:46.600Z,50.24
2022-10-21T16:39:22.117Z,49.63
2022-10-21T16:41:49.071Z,49.49
2022-10-21T16:44:15.802Z,49.85
2022-10-21T16:46:52.607Z,49.67
2022-10-21T16:49:24.702Z,50.01
2022-10-21T16:51:52.948Z,54.07
2022-10-21T16:54:21.396Z,52.81
2022-10-21T16:56:48.439Z,51.91
2022-10-21T16:59:15.048Z,51.40
2022-10-21T17:01:41.872Z,51.21
2022-10-21T17:04:08.607Z,51.48
2022-10-21T17:06:35.234Z,51.31
2022-10-21T17:09:02.193Z,51.50
2022-10-21T17:11:34.364Z,51.14
2022-10-21T17:14:02.935Z,51.32
2022-10-21T17:16:29.830Z,51.25
2022-10-21T17:18:56.552Z,50.90
2022-10-21T17:21:31.723Z,50.79
2022-10-21T17:24:00.875Z,50.84
2022-10-21T17:26:30.197Z,51.03
2022-10-21T17:28:57.481Z,50.97
2022-10-21T17:31:26.954Z,51.09
2022-10-21T17:33:57.057Z,51.22
2022-10-21T17:36:23.751Z,51.29
2022-10-21T17:38:50.838Z,52.52
2022-10-21T17:41:20.476Z,52.67
2022-10-21T17:44:02.498Z,52.38
2022-10-21T17:46:29.141Z,51.94
2022-10-21T17:48:57.591Z,52.16
2022-10-21T17:51:25.586Z,51.92
2022-10-21T17:53:53.974Z,53.05
2022-10-21T17:56:21.016Z,52.69
2022-10-21T17:58:53.255Z,53.29
2022-10-21T18:01:22.040Z,53.28
2022-10-21T18:03:48.933Z,53.90
2022-10-21T18:06:16.425Z,53.50
2022-10-21T18:08:43.109Z,53.33
2022-10-21T18:11:14.825Z,52.26
2022-10-21T18:13:42.798Z,51.98
2022-10-21T18:16:17.963Z,51.73
2022-10-21T18:18:45.712Z,51.83
2022-10-21T18:21:15.533Z,52.08
2022-10-21T18:23:44.622Z,51.83
2022-10-21T18:26:14.284Z,51.98
2022-10-21T18:28:40.898Z,52.28
2022-10-21T18:31:08.171Z,51.89
2022-10-21T18:33:34.929Z,52.10
2022-10-21T18:36:10.026Z,51.97
2022-10-21T18:38:36.861Z,52.08
2022-10-21T18:41:19.398Z,51.79
2022-10-21T18:43:48.989Z,51.85
2022-10-21T18:46:15.917Z,52.22
2022-10-21T18:48:42.761Z,52.09
2022-10-21T18:51:11.664Z,52.08
2022-10-21T18:53:39.642Z,52.14
2022-10-21T18:56:08.026Z,52.71
2022-10-21T18:58:36.397Z,52.60
2022-10-21T19:01:04.482Z,52.72
2022-10-21T19:03:31.610Z,52.97
2022-10-21T19:06:13.658Z,52.99
2022-10-21T19:08:40.398Z,52.87
2022-10-21T19:11:06.965Z,52.60
2022-10-21T19:13:33.521Z,52.96
2022-10-21T19:16:00.201Z,52.92
2022-10-21T19:18:27.610Z,52.60
2022-10-21T19:20:54.252Z,53.57
2022-10-21T19:23:20.838Z,53.27
2022-10-21T19:25:47.413Z,53.14
2022-10-21T19:28:13.951Z,52.80
2022-10-21T19:30:40.748Z,53.27
2022-10-21T19:33:07.290Z,53.30
2022-10-21T19:35:33.962Z,53.31
2022-10-21T19:38:03.240Z,53.17
2022-10-21T19:40:34.595Z,53.39
2022-10-21T19:43:01.156Z,53.09
2022-10-21T19:45:27.798Z,53.18
2022-10-21T19:47:54.415Z,53.61
2022-10-21T19:50:21.003Z,53.31
2022-10-21T19:52:47.642Z,53.51
2022-10-21T19:55:14.361Z,54.19
2022-10-21T19:57:41.108Z,54.13
2022-10-21T20:00:08.923Z,54.32
2022-10-21T20:02:35.556Z,54.29
2022-10-21T20:05:02.221Z,54.26
2022-10-21T20:07:28.893Z,54.49
2022-10-21T20:09:55.482Z,54.15
2022-10-21T20:12:22.017Z,53.89
2022-10-21T20:14:48.691Z,54.19
2022-10-21T20:17:17.458Z,54.28
2022-10-21T20:19:48.706Z,54.87
2022-10-21T20:22:15.337Z,54.70
2022-10-21T20:24:45.653Z,54.51
2022-10-21T20:27:13.283Z,54.24
2022-10-21T20:29:39.817Z,54.21
2022-10-21T20:32:06.446Z,54.72
2022-10-21T20:34:34.188Z,54.82
2022-10-21T20:37:03.982Z,55.14
2022-10-21T20:39:30.568Z,54.88
2022-10-21T20:41:57.139Z,54.83
2022-10-21T20:44:23.726Z,54.44
2022-10-21T20:46:50.298Z,55.13
2022-10-21T20:49:16.868Z,54.74
2022-10-21T20:51:43.564Z,54.86
2022-10-21T20:54:18.498Z,54.60
2022-10-21T20:56:46.353Z,55.25
2022-10-21T20:59:20.112Z,54.82
2022-10-21T21:01:47.425Z,55.00
2022-10-21T21:04:16.022Z,54.83
2022-10-21T21:06:47.932Z,55.22
2022-10-21T21:12:03.851Z,56.65
2022-10-21T21:14:31.320Z,56.12
2022-10-21T21:16:58.198Z,56.00
2022-10-21T21:19:25.796Z,56.00
2022-10-21T21:21:52.619Z,56.25
2022-10-21T21:24:19.621Z,56.31
2022-10-21T21:26:46.774Z,56.22
2022-10-21T21:29:13.771Z,56.35
2022-10-21T21:31:41.566Z,56.06
2022-10-21T21:34:09.525Z,56.46
2022-10-21T21:36:36.945Z,56.82
2022-10-21T21:39:05.242Z,56.78
2022-10-21T21:41:31.914Z,57.27
2022-10-21T21:43:58.599Z,57.38
2022-10-21T21:46:26.040Z,57.59
2022-10-21T21:48:59.606Z,57.28
2022-10-21T21:51:30.333Z,57.22
2022-10-21T21:53:57.906Z,56.71
2022-10-21T21:56:25.711Z,56.55
2022-10-21T21:58:55.025Z,56.50
2022-10-21T22:01:24.003Z,56.61
2022-10-21T22:03:51.972Z,56.25
2022-10-21T22:08:56.927Z,57.57
2022-10-21T22:11:25.982Z,57.16
2022-10-21T22:13:53.014Z,57.43
2022-10-21T22:16:22.312Z,56.63
2022-10-21T22:18:49.171Z,56.73
2022-10-21T22:21:18.055Z,57.15
2022-10-21T22:23:45.695Z,56.84
2022-10-21T22:26:12.965Z,56.93
2022-10-21T22:28:40.302Z,58.04
2022-10-21T22:31:13.138Z,57.33
2022-10-21T22:33:40.269Z,57.02
2022-10-21T22:36:08.239Z,57.30
2022-10-21T22:38:35.116Z,57.56
2022-10-21T22:41:06.094Z,57.60
2022-10-21T22:43:34.024Z,58.48
2022-10-21T22:46:09.842Z,60.26
2022-10-21T22:48:47.371Z,58.88
2022-10-21T22:51:13.978Z,58.30
2022-10-21T22:53:40.582Z,58.51
2022-10-21T22:56:07.366Z,58.81
2022-10-21T22:58:33.990Z,58.60
2022-10-21T23:01:07.273Z,58.52
2022-10-21T23:03:33.926Z,58.04
2022-10-21T23:06:00.533Z,57.63
2022-10-21T23:08:27.312Z,58.57
2022-10-21T23:10:54.363Z,58.26
2022-10-21T23:13:21.125Z,58.10
2022-10-21T23:15:48.063Z,57.48
2022-10-21T23:18:14.892Z,56.59
2022-10-21T23:20:41.806Z,57.48
2022-10-21T23:23:09.086Z,60.01
2022-10-21T23:25:36.073Z,59.35
2022-10-21T23:28:03.882Z,59.15
2022-10-21T23:30:30.502Z,58.42
2022-10-21T23:32:57.094Z,60.45
2022-10-21T23:35:23.847Z,60.01
2022-10-21T23:37:50.443Z,58.67
2022-10-21T23:40:17.947Z,58.54
2022-10-21T23:42:44.543Z,58.51
2022-10-21T23:45:11.698Z,59.24
2022-10-21T23:47:39.476Z,59.36
2022-10-21T23:50:08.124Z,59.43
2022-10-21T23:52:35.363Z,59.56
2022-10-21T23:55:02.691Z,59.42
2022-10-21T23:57:29.335Z,60.06
2022-10-21T23:59:55.885Z,60.35
